Time;durP1;ratioP1;P1;durP2;ratioP2;P2;SDS_P1;SDS_P2;PMS_P1;PMS_P2;Temp;Humidity;BMP_temperature;BMP_pressure;BME280_temperature;BME280_humidity;BME280_pressure;Samples;Min_cycle;Max_cycle;Signal;HPM_P1;HPM_P2
2022/10/30 00:00:39;;;;;;;0.00;0.00;;;;;;;15.60;63.93;99825.78;7361434;19;20029;-59
2022/10/30 00:03:04;;;;;;;0.10;0.10;;;;;;;15.59;64.28;99829.34;7359240;19;20033;-58
2022/10/30 00:05:30;;;;;;;0.00;0.00;;;;;;;15.60;63.76;99815.25;7360716;19;20010;-58
2022/10/30 00:07:56;;;;;;;0.10;0.10;;;;;;;15.59;63.99;99810.94;7359148;19;20125;-58
2022/10/30 00:10:22;;;;;;;0.03;0.03;;;;;;;15.58;63.57;99817.97;7358852;19;20015;-59
2022/10/30 00:12:48;;;;;;;0.00;0.00;;;;;;;15.60;63.84;99817.88;7360079;19;20086;-58
2022/10/30 00:15:13;;;;;;;0.10;0.10;;;;;;;15.60;63.68;99812.63;7358134;19;20010;-58
2022/10/30 00:17:39;;;;;;;0.00;0.00;;;;;;;15.60;63.52;99814.41;7358658;19;20010;-58
2022/10/30 00:20:05;;;;;;;0.00;0.00;;;;;;;15.48;63.27;99797.53;7357224;19;20010;-59
2022/10/30 00:22:30;;;;;;;0.00;0.00;;;;;;;15.58;63.44;99807.44;7359456;19;20021;-58
2022/10/30 00:24:55;;;;;;;0.10;0.10;;;;;;;15.58;63.68;99811.88;7356842;19;20656;-58
2022/10/30 00:27:21;;;;;;;0.05;0.05;;;;;;;15.46;63.16;99786.25;7357162;19;20018;-59
2022/10/30 00:29:46;;;;;;;0.10;0.10;;;;;;;15.57;63.24;99812.81;7359589;19;20049;-59
2022/10/30 00:32:12;;;;;;;0.10;0.10;;;;;;;15.54;63.58;99810.34;7354686;19;20893;-58
2022/10/30 00:34:37;;;;;;;0.10;0.10;;;;;;;15.54;63.44;99813.81;7356820;19;20022;-58
2022/10/30 00:37:03;;;;;;;0.00;0.00;;;;;;;15.53;63.50;99827.06;7355399;19;20015;-59
2022/10/30 00:39:28;;;;;;;0.00;0.00;;;;;;;15.52;63.82;99825.38;7357436;19;20052;-59
2022/10/30 00:41:54;;;;;;;0.05;0.05;;;;;;;15.51;63.52;99821.03;7358321;19;20034;-59
2022/10/30 00:44:44;;;;;;;0.00;0.00;;;;;;;15.52;64.21;99818.34;7358534;19;20070;-59
2022/10/30 00:47:38;;;;;;;0.00;0.00;;;;;;;15.50;64.02;99816.72;7255315;19;2004368;-59
2022/10/30 00:50:10;;;;;;;0.10;0.10;;;;;;;15.45;63.59;99814.34;7255670;19;2004423;-59
2022/10/30 00:52:41;;;;;;;0.00;0.00;;;;;;;15.43;63.89;99807.50;7353997;19;20011;-58
2022/10/30 00:55:19;;;;;;;0.03;0.03;;;;;;;15.42;63.65;99808.44;7356476;19;20045;-58
2022/10/30 00:57:46;;;;;;;0.00;0.00;;;;;;;15.37;63.80;99813.09;7358244;19;20016;-58
2022/10/30 01:00:13;;;;;;;0.00;0.00;;;;;;;15.36;64.44;99816.66;7357833;19;20022;-59
2022/10/30 01:02:41;;;;;;;0.00;0.00;;;;;;;15.31;64.32;99804.63;7357226;19;20968;-59
2022/10/30 01:05:06;;;;;;;;;;;;;;;15.36;64.20;99799.09;7359041;19;20015;-59
2022/10/30 01:07:32;;;;;;;0.00;0.00;;;;;;;15.31;64.50;99796.72;7357875;19;19954;-59
2022/10/30 01:09:58;;;;;;;0.10;0.10;;;;;;;15.30;64.05;99786.28;7356058;19;20014;-59
2022/10/30 01:12:23;;;;;;;0.00;0.00;;;;;;;15.26;64.31;99775.09;7356871;19;20029;-59
2022/10/30 01:14:53;;;;;;;0.00;0.00;;;;;;;15.29;64.15;99780.16;7357402;19;20019;-59
2022/10/30 01:17:37;;;;;;;0.10;0.10;;;;;;;15.29;64.10;99772.28;7358326;19;20022;-58
2022/10/30 01:20:11;;;;;;;0.05;0.05;;;;;;;15.29;64.23;99777.53;7354543;19;20011;-58
2022/10/30 01:22:54;;;;;;;0.00;0.00;;;;;;;15.28;64.46;99762.69;7357176;19;20018;-59
2022/10/30 01:25:55;;;;;;;0.10;0.10;;;;;;;15.28;64.58;99752.19;7354361;19;20010;-60
2022/10/30 01:28:34;;;;;;;0.10;0.10;;;;;;;15.21;64.53;99740.31;7254219;19;2004271;-60
2022/10/30 01:31:21;;;;;;;0.00;0.00;;;;;;;15.26;64.38;99754.06;7356812;19;20025;-58
2022/10/30 01:34:02;;;;;;;0.00;0.00;;;;;;;15.26;64.22;99753.22;7355535;19;20003;-58
2022/10/30 01:36:44;;;;;;;0.00;0.00;;;;;;;15.22;64.17;99747.28;7355145;19;20045;-59
2022/10/30 01:39:17;;;;;;;0.10;0.10;;;;;;;15.25;64.58;99752.34;7357778;19;20033;-59
2022/10/30 01:41:44;;;;;;;0.00;0.00;;;;;;;15.20;64.23;99743.88;7355488;19;20011;-59
2022/10/30 01:44:19;;;;;;;0.10;0.10;;;;;;;15.24;64.67;99747.19;7353879;19;20028;-58
2022/10/30 01:46:45;;;;;;;0.10;0.10;;;;;;;15.21;64.43;99744.75;7356625;19;20022;-58
2022/10/30 01:49:19;;;;;;;0.10;0.10;;;;;;;15.23;64.61;99743.69;7359700;19;21129;-58
2022/10/30 01:52:12;;;;;;;0.10;0.10;;;;;;;15.23;64.82;99756.84;7363677;19;20014;-58
2022/10/30 01:55:04;;;;;;;0.10;0.10;;;;;;;15.25;64.48;99759.38;7258624;19;2004561;-59
2022/10/30 01:57:53;;;;;;;0.10;0.10;;;;;;;15.23;64.51;99758.63;7259235;19;2004506;-58
2022/10/30 02:00:19;;;;;;;0.05;0.05;;;;;;;15.19;64.84;99757.97;7260842;19;2004582;-58
2022/10/30 02:02:45;;;;;;;0.10;0.10;;;;;;;15.23;64.52;99763.91;7362431;19;20045;-58
2022/10/30 02:05:19;;;;;;;0.00;0.00;;;;;;;15.22;64.85;99755.16;7361559;19;20017;-59
2022/10/30 02:07:44;;;;;;;0.10;0.10;;;;;;;15.21;64.89;99742.97;7363074;19;20007;-61
2022/10/30 02:10:10;;;;;;;0.00;0.00;;;;;;;15.22;64.74;99752.53;7360757;19;20003;-59
2022/10/30 02:12:37;;;;;;;0.10;0.10;;;;;;;15.23;64.71;99742.84;7359405;19;20003;-61
2022/10/30 02:15:03;;;;;;;0.00;0.00;;;;;;;15.22;64.62;99744.66;7359890;19;20022;-60
2022/10/30 02:17:28;;;;;;;0.10;0.10;;;;;;;15.14;64.68;99725.81;7363467;19;20010;-59
2022/10/30 02:19:54;;;;;;;0.00;0.00;;;;;;;15.24;64.43;99745.38;7361255;19;20029;-58
2022/10/30 02:22:20;;;;;;;0.00;0.00;;;;;;;15.25;64.11;99746.25;7362686;19;20014;-58
2022/10/30 02:24:45;;;;;;;0.10;0.10;;;;;;;15.27;64.73;99750.50;7360436;19;20037;-59
2022/10/30 02:27:11;;;;;;;0.00;0.00;;;;;;;15.27;64.25;99754.91;7362675;19;20003;-59
2022/10/30 02:29:36;;;;;;;0.00;0.00;;;;;;;15.26;64.82;99746.16;7360928;19;20022;-58
2022/10/30 02:32:02;;;;;;;0.10;0.10;;;;;;;15.25;64.26;99747.06;7360326;19;20074;-58
2022/10/30 02:34:27;;;;;;;0.00;0.00;;;;;;;15.28;64.77;99739.03;7362012;19;20154;-58
2022/10/30 02:36:53;;;;;;;0.08;0.08;;;;;;;15.28;64.31;99746.06;7361064;19;20763;-58
2022/10/30 02:39:20;;;;;;;0.10;0.10;;;;;;;15.28;64.73;99741.66;7363516;19;20057;-58
2022/10/30 02:41:46;;;;;;;0.05;0.05;;;;;;;15.28;64.80;99744.28;7361605;19;20015;-58
2022/10/30 02:44:11;;;;;;;0.10;0.10;;;;;;;15.28;64.46;99741.66;7362418;19;20021;-57
2022/10/30 02:46:37;;;;;;;0.05;0.05;;;;;;;15.27;64.93;99729.44;7366275;19;20014;-58
2022/10/30 02:49:02;;;;;;;0.10;0.10;;;;;;;15.28;65.04;99732.91;7359026;19;21474;-58
2022/10/30 02:51:30;;;;;;;0.00;0.00;;;;;;;15.30;65.05;99739.78;7361102;19;20018;-58
2022/10/30 02:53:55;;;;;;;;;;;;;;;15.34;64.64;99729.09;7362488;19;20010;-58
2022/10/30 02:56:20;;;;;;;0.00;0.00;;;;;;;15.31;65.13;99730.97;7360478;19;19918;-59
2022/10/30 02:58:46;;;;;;;0.00;0.00;;;;;;;15.32;64.89;99737.91;7349252;19;20105;-59
2022/10/30 03:01:14;;;;;;;0.00;0.00;;;;;;;15.36;64.98;99724.56;7363744;19;20023;-58
2022/10/30 03:03:41;;;;;;;0.10;0.10;;;;;;;15.36;65.42;99728.06;7360445;19;20081;-58
2022/10/30 03:06:08;;;;;;;0.10;0.10;;;;;;;15.39;65.42;99727.03;7363497;19;20466;-58
2022/10/30 03:08:35;;;;;;;0.05;0.05;;;;;;;15.42;65.15;99737.41;7364079;19;20774;-58
2022/10/30 03:11:11;;;;;;;0.00;0.00;;;;;;;15.44;65.15;99735.50;7360602;19;20018;-58
2022/10/30 03:13:39;;;;;;;0.10;0.10;;;;;;;15.48;65.43;99742.28;7360355;19;20018;-58
2022/10/30 03:16:17;;;;;;;0.10;0.10;;;;;;;15.55;65.63;99744.47;7363236;19;20019;-59
2022/10/30 03:18:43;;;;;;;0.10;0.10;;;;;;;15.56;65.07;99746.19;7361866;19;20010;-58
2022/10/30 03:21:11;;;;;;;0.10;0.10;;;;;;;15.62;64.90;99747.59;7362159;19;20026;-57
2022/10/30 03:23:37;;;;;;;0.00;0.00;;;;;;;15.64;64.88;99735.22;7363660;19;20014;-58
2022/10/30 03:26:03;;;;;;;0.00;0.00;;;;;;;15.65;65.44;99742.16;7360921;19;21800;-58
2022/10/30 03:28:30;;;;;;;0.00;0.00;;;;;;;15.67;64.95;99735.06;7360793;19;20007;-58
2022/10/30 03:31:00;;;;;;;0.10;0.10;;;;;;;15.71;64.70;99743.59;7359240;19;20052;-59
2022/10/30 03:33:26;;;;;;;0.10;0.10;;;;;;;15.68;65.18;99734.09;7363067;19;20077;-58
2022/10/30 03:35:51;;;;;;;0.00;0.00;;;;;;;15.67;64.77;99737.69;7363366;19;20462;-58
2022/10/30 03:38:17;;;;;;;0.00;0.00;;;;;;;15.69;64.95;99734.94;7359722;19;20018;-58
2022/10/30 03:40:42;;;;;;;0.00;0.00;;;;;;;15.68;64.60;99718.31;7362266;19;20102;-57
2022/10/30 03:43:08;;;;;;;0.00;0.00;;;;;;;15.68;64.46;99725.38;7360263;19;20031;-58
2022/10/30 03:45:33;;;;;;;0.00;0.00;;;;;;;15.69;64.57;99713.91;7361272;19;21151;-58
2022/10/30 03:48:04;;;;;;;0.10;0.10;;;;;;;15.57;64.70;99689.13;7362007;19;20018;-58
2022/10/30 03:50:30;;;;;;;0.10;0.10;;;;;;;15.71;64.53;99707.63;7358859;19;20025;-58
2022/10/30 03:52:56;;;;;;;0.08;0.08;;;;;;;15.72;64.60;99704.03;7361151;19;20015;-59
2022/10/30 03:55:23;;;;;;;0.00;0.00;;;;;;;15.73;64.77;99700.47;7361959;19;20019;-58
2022/10/30 03:57:48;;;;;;;0.10;0.10;;;;;;;15.68;64.83;99706.94;7359678;19;20026;-58
2022/10/30 04:00:15;;;;;;;0.08;0.08;;;;;;;15.72;64.36;99703.19;7358999;19;20030;-58
2022/10/30 04:02:47;;;;;;;0.10;0.10;;;;;;;15.71;64.76;99697.09;7361142;19;20106;-57
2022/10/30 04:05:18;;;;;;;0.10;0.10;;;;;;;15.73;64.71;99705.72;7348807;19;20980;-58
2022/10/30 04:07:43;;;;;;;0.08;0.08;;;;;;;15.71;66.56;99705.00;7360700;19;20047;-57
2022/10/30 04:10:10;;;;;;;0.10;0.10;;;;;;;15.72;66.63;99703.19;7359660;19;20002;-57
2022/10/30 04:12:35;;;;;;;0.10;0.10;;;;;;;15.67;67.13;99689.47;7357113;19;20010;-58
2022/10/30 04:15:01;;;;;;;0.00;0.00;;;;;;;15.62;67.69;99696.75;7362668;19;20021;-58
2022/10/30 04:17:26;;;;;;;0.10;0.10;;;;;;;15.56;67.73;99697.94;7358156;19;20030;-58
2022/10/30 04:19:52;;;;;;;0.00;0.00;;;;;;;15.48;68.28;99684.41;7353168;19;20410;-57
2022/10/30 04:22:17;;;;;;;0.00;0.00;;;;;;;15.47;67.38;99690.63;7361432;19;20041;-58
2022/10/30 04:24:43;;;;;;;0.10;0.10;;;;;;;15.43;68.00;99689.09;7360240;19;20011;-58
2022/10/30 04:27:09;;;;;;;0.10;0.10;;;;;;;15.43;68.49;99689.09;7361017;19;20525;-58
2022/10/30 04:29:36;;;;;;;0.10;0.10;;;;;;;15.42;68.43;99684.78;7362638;19;20014;-58
2022/10/30 04:32:02;;;;;;;;;;;;;;;15.45;66.83;99677.53;7360256;19;20015;-58
2022/10/30 04:34:27;;;;;;;0.03;0.03;;;;;;;15.42;67.92;99684.78;7360033;19;19926;-59
2022/10/30 04:36:52;;;;;;;0.00;0.00;;;;;;;15.41;67.75;99668.16;7358790;19;20017;-58
2022/10/30 04:39:18;;;;;;;0.10;0.10;;;;;;;15.41;68.00;99675.16;7361847;19;20063;-58
2022/10/30 04:41:43;;;;;;;0.00;0.00;;;;;;;15.39;68.04;99669.16;7360157;19;20009;-58
2022/10/30 04:44:08;;;;;;;0.10;0.10;;;;;;;15.38;67.92;99663.06;7361834;19;20010;-58
2022/10/30 04:46:34;;;;;;;0.10;0.10;;;;;;;15.38;68.27;99668.31;7361112;19;20010;-58
2022/10/30 04:48:59;;;;;;;0.00;0.00;;;;;;;15.39;67.70;99675.25;7357578;19;20007;-59
2022/10/30 04:51:25;;;;;;;0.10;0.10;;;;;;;15.37;67.73;99676.31;7361077;19;20010;-58
2022/10/30 04:53:50;;;;;;;0.00;0.00;;;;;;;15.42;67.54;99672.47;7360747;19;20025;-58
2022/10/30 04:56:15;;;;;;;0.10;0.10;;;;;;;15.44;67.79;99659.22;7361238;19;20034;-59
2022/10/30 04:58:41;;;;;;;0.00;0.00;;;;;;;15.45;67.18;99674.06;7359837;19;20022;-58
2022/10/30 05:01:07;;;;;;;0.10;0.10;;;;;;;15.47;67.69;99672.19;7358750;19;20118;-58
2022/10/30 05:03:33;;;;;;;0.10;0.10;;;;;;;15.44;67.81;99654.78;7357762;19;20002;-58
2022/10/30 05:06:03;;;;;;;0.00;0.00;;;;;;;15.50;68.35;99656.22;7361598;19;20010;-58
2022/10/30 05:08:28;;;;;;;0.00;0.00;;;;;;;15.51;67.78;99655.25;7360329;19;20020;-58
2022/10/30 05:10:55;;;;;;;0.00;0.00;;;;;;;15.48;67.24;99652.84;7360808;19;20014;-58
2022/10/30 05:13:20;;;;;;;0.10;0.10;;;;;;;15.47;67.75;99672.19;7357883;19;20595;-59
2022/10/30 05:15:45;;;;;;;0.03;0.03;;;;;;;15.42;67.31;99669.84;7362215;19;20078;-58
2022/10/30 05:18:11;;;;;;;0.10;0.10;;;;;;;15.35;65.96;99701.84;7358503;19;20013;-58
2022/10/30 05:20:36;;;;;;;0.00;0.00;;;;;;;15.22;66.34;99681.53;7358654;19;20735;-59
2022/10/30 05:23:02;;;;;;;0.10;0.10;;;;;;;15.07;66.47;99673.69;7361908;19;20023;-58
2022/10/30 05:25:27;;;;;;;0.00;0.00;;;;;;;15.04;66.48;99670.28;7366359;19;20454;-59
2022/10/30 05:28:01;;;;;;;0.00;0.00;;;;;;;14.98;66.51;99669.78;7365475;19;20043;-59
2022/10/30 05:30:27;;;;;;;0.00;0.00;;;;;;;14.90;66.10;99677.25;7366724;19;20011;-59
2022/10/30 05:33:05;;;;;;;0.10;0.10;;;;;;;14.87;66.50;99693.22;7366219;19;20030;-59
2022/10/30 05:35:32;;;;;;;0.00;0.00;;;;;;;14.76;66.47;99673.63;7365989;19;20018;-59
2022/10/30 05:38:02;;;;;;;0.00;0.00;;;;;;;14.77;66.81;99672.69;7366649;19;20068;-58
2022/10/30 05:40:28;;;;;;;0.05;0.05;;;;;;;14.73;66.69;99681.69;7365472;19;20023;-59
2022/10/30 05:42:53;;;;;;;0.08;0.08;;;;;;;14.68;66.71;99654.81;7364297;19;20037;-59
2022/10/30 05:45:19;;;;;;;0.00;0.00;;;;;;;14.67;66.60;99655.75;7366265;19;20026;-59
2022/10/30 05:47:54;;;;;;;0.03;0.03;;;;;;;14.64;66.60;99655.91;7365845;19;20014;-58
2022/10/30 05:50:19;;;;;;;0.00;0.00;;;;;;;14.53;68.20;99650.41;7366016;19;20850;-58
2022/10/30 05:52:45;;;;;;;0.00;0.00;;;;;;;14.47;69.13;99641.09;7365109;19;22323;-58
2022/10/30 05:55:10;;;;;;;0.10;0.10;;;;;;;14.39;68.27;99642.41;7364118;19;20022;-58
2022/10/30 05:57:35;;;;;;;0.00;0.00;;;;;;;14.30;68.39;99640.31;7365280;19;20569;-58
2022/10/30 06:00:01;;;;;;;0.10;0.10;;;;;;;14.14;68.62;99625.41;7364026;19;20010;-58
2022/10/30 06:02:26;;;;;;;0.00;0.00;;;;;;;14.12;69.24;99636.91;7365147;19;20911;-59
2022/10/30 06:04:52;;;;;;;0.00;0.00;;;;;;;14.09;69.05;99640.56;7364859;19;20006;-58
2022/10/30 06:07:17;;;;;;;0.00;0.00;;;;;;;14.01;69.71;99632.25;7365966;19;20014;-59
2022/10/30 06:09:43;;;;;;;0.00;0.00;;;;;;;13.98;69.88;99640.28;7366497;19;20014;-58
2022/10/30 06:12:08;;;;;;;0.10;0.10;;;;;;;13.95;69.70;99651.78;7363687;19;20033;-61
2022/10/30 06:14:33;;;;;;;0.00;0.00;;;;;;;13.93;69.88;99643.13;7363878;19;20513;-59
2022/10/30 06:16:59;;;;;;;0.10;0.10;;;;;;;13.92;70.05;99643.22;7367259;19;20035;-61
2022/10/30 06:19:24;;;;;;;0.00;0.00;;;;;;;13.87;69.93;99638.22;7363774;19;20018;-60
2022/10/30 06:21:49;;;;;;;0.10;0.10;;;;;;;13.88;70.26;99639.06;7364776;19;20041;-61
2022/10/30 06:24:15;;;;;;;0.08;0.08;;;;;;;13.87;70.61;99645.25;7363920;19;20026;-61
2022/10/30 06:26:40;;;;;;;0.10;0.10;;;;;;;13.86;70.61;99644.41;7364929;19;20007;-61
2022/10/30 06:29:06;;;;;;;0.00;0.00;;;;;;;13.87;70.37;99637.38;7361847;19;20017;-61
2022/10/30 06:31:31;;;;;;;0.00;0.00;;;;;;;13.88;70.75;99639.06;7364958;19;20014;-60
2022/10/30 06:33:56;;;;;;;0.00;0.00;;;;;;;13.83;70.74;99627.97;7360948;19;20053;-60
2022/10/30 06:36:22;;;;;;;0.00;0.00;;;;;;;13.80;71.15;99625.53;7363871;19;20011;-61
2022/10/30 06:38:47;;;;;;;0.10;0.10;;;;;;;13.83;70.46;99622.72;7365442;19;20049;-61
2022/10/30 06:41:13;;;;;;;0.00;0.00;;;;;;;13.84;70.98;99627.91;7363891;19;20002;-60
2022/10/30 06:43:38;;;;;;;0.08;0.08;;;;;;;13.77;70.52;99624.75;7362308;19;20018;-61
2022/10/30 06:46:04;;;;;;;0.00;0.00;;;;;;;13.86;70.62;99635.69;7363696;19;20049;-60
2022/10/30 06:48:29;;;;;;;0.00;0.00;;;;;;;13.83;70.77;99636.69;7363155;19;20018;-60
2022/10/30 06:50:56;;;;;;;0.08;0.08;;;;;;;13.83;70.63;99635.84;7362157;19;20017;-60
2022/10/30 06:53:22;;;;;;;0.00;0.00;;;;;;;13.82;70.93;99629.75;7364720;19;20014;-60
2022/10/30 06:56:02;;;;;;;0.00;0.00;;;;;;;13.84;70.62;99648.03;7362505;19;20474;-60
2022/10/30 06:58:28;;;;;;;0.00;0.00;;;;;;;13.79;70.77;99645.69;7354639;19;20010;-61
2022/10/30 07:00:54;;;;;;;0.00;0.00;;;;;;;13.79;70.62;99639.56;7362204;19;20017;-60
2022/10/30 07:03:19;;;;;;;0.10;0.10;;;;;;;13.76;71.26;99641.41;7360026;19;20006;-60
2022/10/30 07:05:45;;;;;;;0.00;0.00;;;;;;;13.75;71.03;99644.13;7363799;19;20014;-60
2022/10/30 07:08:11;;;;;;;0.00;0.00;;;;;;;13.75;70.39;99649.38;7360677;19;20015;-60
2022/10/30 07:10:36;;;;;;;0.00;0.00;;;;;;;13.51;71.34;99606.91;7361666;19;20034;-60
2022/10/30 07:13:02;;;;;;;0.00;0.00;;;;;;;13.69;71.58;99639.22;7362717;19;20006;-60
2022/10/30 07:15:27;;;;;;;0.10;0.10;;;;;;;13.66;71.74;99634.97;7360674;19;20022;-60
2022/10/30 07:17:55;;;;;;;0.10;0.10;;;;;;;13.64;71.64;99630.75;7361016;19;20358;-61
2022/10/30 07:20:20;;;;;;;0.00;0.00;;;;;;;13.58;71.29;99634.50;7363131;19;20014;-61
2022/10/30 07:22:46;;;;;;;0.10;0.10;;;;;;;13.59;71.30;99640.63;7362855;19;20958;-60
2022/10/30 07:25:11;;;;;;;0.00;0.00;;;;;;;13.55;71.95;99642.53;7360548;19;21916;-61
2022/10/30 07:27:45;;;;;;;0.10;0.10;;;;;;;13.57;71.95;99650.31;7360760;19;20014;-60
2022/10/30 07:30:12;;;;;;;0.00;0.00;;;;;;;13.53;72.50;99654.88;7364376;19;20074;-60
2022/10/30 07:32:37;;;;;;;0.00;0.00;;;;;;;13.50;72.16;99644.56;7362325;19;20023;-61
2022/10/30 07:35:03;;;;;;;0.00;0.00;;;;;;;13.47;72.78;99655.19;7358934;19;20429;-61
2022/10/30 07:37:29;;;;;;;0.00;0.00;;;;;;;13.46;73.32;99648.25;7355651;19;20506;-60
2022/10/30 07:39:54;;;;;;;0.00;0.00;;;;;;;13.32;73.44;99635.84;7361524;19;20042;-61
2022/10/30 07:42:19;;;;;;;0.00;0.00;;;;;;;13.38;73.54;99639.94;7345142;19;20014;-60
2022/10/30 07:44:45;;;;;;;0.10;0.10;;;;;;;13.41;74.04;99655.50;7361515;19;20014;-60
2022/10/30 07:47:10;;;;;;;0.03;0.03;;;;;;;13.40;72.99;99648.59;7358260;19;20917;-60
2022/10/30 07:49:35;;;;;;;0.10;0.10;;;;;;;13.37;73.85;99651.34;7357737;19;20090;-60
2022/10/30 07:52:01;;;;;;;0.00;0.00;;;;;;;13.37;73.81;99656.59;7357852;19;22201;-60
2022/10/30 07:54:26;;;;;;;0.00;0.00;;;;;;;13.37;73.91;99638.22;7353017;19;20010;-61
2022/10/30 07:56:52;;;;;;;0.00;0.00;;;;;;;13.36;74.48;99647.03;7355329;19;20031;-61
2022/10/30 07:59:17;;;;;;;0.00;0.00;;;;;;;13.30;74.19;99642.09;7354238;19;20968;-60
2022/10/30 08:01:42;;;;;;;0.00;0.00;;;;;;;13.36;74.53;99647.88;7356448;19;20014;-60
2022/10/30 08:04:10;;;;;;;0.00;0.00;;;;;;;13.38;74.73;99650.41;7355032;19;21198;-60
2022/10/30 08:06:35;;;;;;;0.00;0.00;;;;;;;13.39;74.75;99662.63;7352675;19;20010;-60
2022/10/30 08:09:01;;;;;;;0.00;0.00;;;;;;;13.40;74.92;99665.16;7356625;19;20007;-61
2022/10/30 08:11:26;;;;;;;0.00;0.00;;;;;;;13.44;74.66;99678.97;7359023;19;20022;-60
2022/10/30 08:13:51;;;;;;;0.10;0.10;;;;;;;13.48;74.92;99689.22;7357404;19;20054;-60
2022/10/30 08:16:17;;;;;;;0.00;0.00;;;;;;;13.55;74.88;99683.66;7361010;19;20082;-59
2022/10/30 08:18:43;;;;;;;0.00;0.00;;;;;;;13.49;74.90;99669.09;7357856;19;20486;-61
2022/10/30 08:21:09;;;;;;;0.10;0.10;;;;;;;13.66;74.82;99686.59;7356148;19;20009;-61
2022/10/30 08:23:34;;;;;;;0.05;0.05;;;;;;;13.70;74.90;99677.63;7358342;19;20011;-60
2022/10/30 08:26:00;;;;;;;0.00;0.00;;;;;;;13.76;74.60;99678.16;7356506;19;20010;-61
2022/10/30 08:28:25;;;;;;;0.00;0.00;;;;;;;13.81;74.65;99683.16;7355290;19;20017;-60
2022/10/30 08:30:51;;;;;;;0.10;0.10;;;;;;;13.84;74.05;99677.78;7349153;19;20003;-61
2022/10/30 08:33:16;;;;;;;0.10;0.10;;;;;;;13.88;73.55;99681.91;7358218;19;20027;-61
2022/10/30 08:35:49;;;;;;;0.10;0.10;;;;;;;13.92;73.45;99693.09;7356328;19;20651;-60
2022/10/30 08:38:15;;;;;;;0.10;0.10;;;;;;;13.92;73.99;99687.84;7357181;19;20466;-60
2022/10/30 08:40:41;;;;;;;0.00;0.00;;;;;;;13.94;74.17;99702.59;7347992;19;20776;-60
2022/10/30 08:43:07;;;;;;;0.10;0.10;;;;;;;13.96;73.95;99699.88;7359365;19;20015;-60
2022/10/30 08:45:32;;;;;;;0.00;0.00;;;;;;;13.97;74.54;99702.41;7361609;19;20403;-61
2022/10/30 08:48:00;;;;;;;0.00;0.00;;;;;;;13.88;74.38;99676.66;7361106;19;20003;-60
2022/10/30 08:50:26;;;;;;;0.00;0.00;;;;;;;14.03;74.56;99694.22;7356969;19;20101;-59
2022/10/30 08:52:52;;;;;;;0.00;0.00;;;;;;;13.95;74.40;99677.19;7345638;19;20587;-61
2022/10/30 08:55:17;;;;;;;0.00;0.00;;;;;;;14.14;74.55;99693.66;7349100;19;20017;-61
2022/10/30 08:57:42;;;;;;;0.10;0.10;;;;;;;14.21;74.20;99692.41;7354096;19;20010;-58
2022/10/30 09:00:08;;;;;;;0.00;0.00;;;;;;;14.32;74.08;99701.47;7360068;19;20015;-60
2022/10/30 09:02:38;;;;;;;0.10;0.10;;;;;;;14.47;74.26;99691.00;7340710;19;20012;-61
2022/10/30 09:05:04;;;;;;;0.10;0.10;;;;;;;14.61;73.97;99687.63;7364050;19;20025;-61
2022/10/30 09:07:30;;;;;;;0.10;0.10;;;;;;;14.76;73.31;99686.78;7364840;19;20050;-60
2022/10/30 09:09:56;;;;;;;0.10;0.10;;;;;;;14.86;73.17;99688.91;7358589;19;20039;-60
2022/10/30 09:12:21;;;;;;;0.10;0.10;;;;;;;15.01;73.21;99695.91;7355598;19;20086;-61
2022/10/30 09:14:47;;;;;;;0.00;0.00;;;;;;;15.14;73.13;99691.63;7352298;19;20011;-61
2022/10/30 09:17:12;;;;;;;0.10;0.10;;;;;;;15.29;73.12;99689.91;7359173;19;20074;-61
2022/10/30 09:19:38;;;;;;;0.00;0.00;;;;;;;15.49;73.06;99697.47;7359370;19;20090;-61
2022/10/30 09:22:03;;;;;;;0.10;0.10;;;;;;;15.73;72.51;99689.09;7363179;19;20022;-61
2022/10/30 09:24:29;;;;;;;0.08;0.08;;;;;;;15.99;72.31;99687.50;7361961;19;20655;-58
2022/10/30 09:26:54;;;;;;;0.10;0.10;;;;;;;16.28;71.84;99686.56;7363606;19;20006;-58
2022/10/30 09:29:20;;;;;;;0.10;0.10;;;;;;;16.59;71.31;99684.63;7359034;19;20014;-58
2022/10/30 09:31:46;;;;;;;0.10;0.10;;;;;;;16.91;70.57;99687.00;7354965;19;20014;-58
2022/10/30 09:34:11;;;;;;;0.10;0.10;;;;;;;17.20;70.19;99685.09;7361432;19;20078;-58
2022/10/30 09:36:37;;;;;;;0.10;0.10;;;;;;;17.41;69.34;99682.81;7362580;19;20014;-58
2022/10/30 09:39:02;;;;;;;0.10;0.10;;;;;;;17.61;68.56;99674.41;7361638;19;20189;-58
2022/10/30 09:41:46;;;;;;;0.10;0.10;;;;;;;17.78;68.29;99684.66;7361548;19;20007;-58
2022/10/30 09:44:18;;;;;;;0.10;0.10;;;;;;;18.00;68.39;99680.56;7361931;19;20033;-59
2022/10/30 09:47:04;;;;;;;0.10;0.10;;;;;;;18.04;67.96;99666.16;7363780;19;20007;-58
2022/10/30 09:49:38;;;;;;;0.10;0.10;;;;;;;18.11;66.86;99678.03;7354870;19;20129;-59
2022/10/30 09:52:24;;;;;;;0.00;0.00;;;;;;;18.15;66.13;99668.94;7360704;19;20408;-58
2022/10/30 09:55:19;;;;;;;0.10;0.10;;;;;;;18.28;66.99;99675.00;7360361;19;20113;-59
2022/10/30 09:58:18;;;;;;;0.10;0.10;;;;;;;18.29;65.90;99652.91;7258888;19;2004486;-58
2022/10/30 10:01:22;;;;;;;0.00;0.00;;;;;;;18.54;67.22;99669.66;7253432;19;2004289;-58
2022/10/30 10:04:21;;;;;;;0.10;0.10;;;;;;;18.65;64.86;99682.94;7255832;19;2005631;-58
2022/10/30 10:06:52;;;;;;;0.10;0.10;;;;;;;18.59;61.94;99672.81;7260822;19;2004345;-58
2022/10/30 10:09:21;;;;;;;0.10;0.10;;;;;;;18.47;61.01;99663.16;7357847;19;20015;-57
2022/10/30 10:11:55;;;;;;;0.10;0.10;;;;;;;18.45;62.04;99660.63;7362443;19;21844;-58
2022/10/30 10:14:31;;;;;;;0.03;0.03;;;;;;;18.45;61.78;99675.59;7358698;19;20015;-58
2022/10/30 10:17:00;;;;;;;0.10;0.10;;;;;;;18.63;61.25;99663.72;7354407;19;20799;-58
2022/10/30 10:19:32;;;;;;;0.10;0.10;;;;;;;18.83;61.36;99676.38;7358645;19;20010;-58
2022/10/30 10:22:02;;;;;;;0.10;0.10;;;;;;;18.84;58.96;99661.34;7354986;19;20011;-58
2022/10/30 10:24:41;;;;;;;0.10;0.10;;;;;;;19.17;61.19;99681.81;7360003;19;20029;-58
2022/10/30 10:27:18;;;;;;;0.10;0.10;;;;;;;19.30;58.96;99679.09;7364214;19;20018;-58
2022/10/30 10:30:16;;;;;;;0.05;0.05;;;;;;;19.68;63.15;99681.50;7358320;19;20003;-57
2022/10/30 10:33:09;;;;;;;0.10;0.10;;;;;;;19.98;61.31;99677.47;7254954;19;2004884;-58
2022/10/30 10:36:16;;;;;;;0.10;0.10;;;;;;;20.19;61.00;99673.13;7358010;19;20007;-58
2022/10/30 10:38:44;;;;;;;0.10;0.10;;;;;;;20.40;56.12;99676.72;7257382;19;2004373;-58
2022/10/30 10:41:46;;;;;;;0.10;0.10;;;;;;;20.62;59.79;99675.84;7359105;19;20014;-58
2022/10/30 10:44:20;;;;;;;0.10;0.10;;;;;;;20.81;58.79;99669.06;7257604;19;2004223;-58
2022/10/30 10:47:08;;;;;;;0.10;0.10;;;;;;;20.98;57.98;99669.38;7359509;19;20030;-58
2022/10/30 10:49:49;;;;;;;0.10;0.10;;;;;;;21.02;54.78;99666.47;7358502;19;20014;-58
2022/10/30 10:52:20;;;;;;;0.10;0.10;;;;;;;20.97;54.29;99669.47;7354285;19;20018;-58
2022/10/30 10:54:48;;;;;;;0.10;0.10;;;;;;;20.94;53.54;99672.41;7359121;19;20018;-58
2022/10/30 10:57:31;;;;;;;0.00;0.00;;;;;;;20.92;55.55;99672.50;7356863;19;20015;-58
2022/10/30 11:00:03;;;;;;;0.10;0.10;;;;;;;20.84;54.49;99679.44;7356812;19;20011;-58
2022/10/30 11:02:44;;;;;;;0.10;0.10;;;;;;;20.68;54.29;99686.00;7356153;19;20027;-58
2022/10/30 11:05:17;;;;;;;0.10;0.10;;;;;;;20.45;52.56;99685.16;7361951;19;20014;-58
2022/10/30 11:07:48;;;;;;;0.10;0.10;;;;;;;20.24;54.10;99673.59;7357247;19;20078;-58
2022/10/30 11:10:15;;;;;;;0.00;0.00;;;;;;;20.07;55.39;99682.03;7353552;19;20006;-58
2022/10/30 11:12:41;;;;;;;0.10;0.10;;;;;;;19.90;55.67;99678.88;7351531;19;20900;-58
2022/10/30 11:15:25;;;;;;;0.10;0.10;;;;;;;19.78;56.27;99684.31;7356430;19;20010;-58
2022/10/30 11:18:01;;;;;;;0.10;0.10;;;;;;;19.60;55.10;99682.09;7356679;19;20015;-58
2022/10/30 11:20:47;;;;;;;0.10;0.10;;;;;;;19.45;56.13;99678.75;7355367;19;20006;-58
2022/10/30 11:23:34;;;;;;;0.07;0.07;;;;;;;19.33;57.17;99685.00;7357114;19;20545;-58
2022/10/30 11:26:01;;;;;;;0.10;0.10;;;;;;;19.24;56.50;99677.75;7359668;19;22190;-57
2022/10/30 11:28:49;;;;;;;0.10;0.10;;;;;;;19.30;58.17;99674.63;7357726;19;20030;-58
2022/10/30 11:31:29;;;;;;;0.10;0.10;;;;;;;19.24;57.22;99661.03;7363110;19;20094;-58
2022/10/30 11:33:54;;;;;;;0.10;0.10;;;;;;;19.37;55.99;99675.88;7361465;19;20014;-58
2022/10/30 11:36:24;;;;;;;0.10;0.10;;;;;;;19.52;56.42;99683.63;7361837;19;21075;-58
2022/10/30 11:38:50;;;;;;;0.10;0.10;;;;;;;19.52;56.09;99680.97;7361013;19;20699;-58
2022/10/30 11:41:17;;;;;;;0.10;0.10;;;;;;;19.55;54.64;99686.84;7358562;19;20022;-57
2022/10/30 11:43:43;;;;;;;0.10;0.10;;;;;;;19.47;54.77;99675.19;7354814;19;20457;-58